SWA327 KFLL-KTPA
Flight info
| Callsign | SWA327 |
|---|---|
| Flight time | 0h 44m |
| Altitude | 24000 |
| Route | BNICE2 COREA BLFRG3 |
| Aircraft | B737/M-SDE2E3FGHIRWXY/LB1 |
Departure
| Time | 2026-05-05 19:49 |
|---|---|
| Airport | Fort Lauderdale Hollywood International Airport (KFLL) |
Arrival
| Time | 2026-05-05 20:33 |
|---|---|
| Airport | Tampa International Airport (KTPA) |
| Time | Latitude | Longitude | Altitude | Speed | Heading |
|---|---|---|---|---|---|
| 2026-05-05 19:28 | 26.07332 | -80.13788 | 15 ft | 0 kts | 246° |
| 2026-05-05 19:37 | 26.07335 | -80.13781 | 17 ft | 2 kts | 246° |
| 2026-05-05 19:38 | 26.07341 | -80.13765 | 16 ft | 2 kts | 246° |
| 2026-05-05 19:38 | 26.07348 | -80.13748 | 17 ft | 2 kts | 246° |
| 2026-05-05 19:38 | 26.07355 | -80.13731 | 16 ft | 2 kts | 246° |
| 2026-05-05 19:38 | 26.07359 | -80.13721 | 17 ft | 0 kts | 246° |
| 2026-05-05 19:41 | 26.07358 | -80.13723 | 16 ft | 2 kts | 252° |
| 2026-05-05 19:41 | 26.07379 | -80.13732 | 17 ft | 4 kts | 347° |
| 2026-05-05 19:42 | 26.07407 | -80.13733 | 15 ft | 4 kts | 355° |
| 2026-05-05 19:42 | 26.07436 | -80.13736 | 15 ft | 4 kts | 354° |
| 2026-05-05 19:42 | 26.07464 | -80.13760 | 15 ft | 8 kts | 292° |
| 2026-05-05 19:42 | 26.07466 | -80.13834 | 15 ft | 11 kts | 272° |
| 2026-05-05 19:43 | 26.07490 | -80.13910 | 16 ft | 11 kts | 305° |
| 2026-05-05 19:43 | 26.07543 | -80.13997 | 15 ft | 16 kts | 296° |
| 2026-05-05 19:43 | 26.07556 | -80.14143 | 16 ft | 21 kts | 269° |
| 2026-05-05 19:43 | 26.07555 | -80.14310 | 16 ft | 21 kts | 270° |
| 2026-05-05 19:44 | 26.07559 | -80.14472 | 16 ft | 21 kts | 270° |
| 2026-05-05 19:44 | 26.07560 | -80.14635 | 16 ft | 22 kts | 270° |
| 2026-05-05 19:44 | 26.07562 | -80.14810 | 16 ft | 24 kts | 270° |
| 2026-05-05 19:44 | 26.07561 | -80.14996 | 15 ft | 24 kts | 270° |
| 2026-05-05 19:45 | 26.07563 | -80.15173 | 15 ft | 23 kts | 271° |
| 2026-05-05 19:45 | 26.07566 | -80.15345 | 15 ft | 22 kts | 271° |
| 2026-05-05 19:45 | 26.07565 | -80.15525 | 15 ft | 23 kts | 268° |
| 2026-05-05 19:45 | 26.07566 | -80.15701 | 15 ft | 22 kts | 270° |
| 2026-05-05 19:46 | 26.07567 | -80.15870 | 15 ft | 22 kts | 270° |
| 2026-05-05 19:46 | 26.07568 | -80.16040 | 16 ft | 23 kts | 270° |
| 2026-05-05 19:46 | 26.07570 | -80.16232 | 16 ft | 25 kts | 270° |
| 2026-05-05 19:46 | 26.07570 | -80.16417 | 16 ft | 23 kts | 270° |
| 2026-05-05 19:47 | 26.07570 | -80.16580 | 15 ft | 17 kts | 270° |
| 2026-05-05 19:47 | 26.07575 | -80.16624 | 15 ft | 0 kts | 309° |
| 2026-05-05 19:47 | 26.07594 | -80.16637 | 16 ft | 11 kts | 336° |
| 2026-05-05 19:48 | 26.07677 | -80.16640 | 17 ft | 12 kts | 19° |
| 2026-05-05 19:48 | 26.07694 | -80.16542 | 17 ft | 27 kts | 90° |
| 2026-05-05 19:48 | 26.07691 | -80.16070 | 18 ft | 95 kts | 91° |
| 2026-05-05 19:48 | 26.07689 | -80.15104 | 30 ft | 147 kts | 89° |
| 2026-05-05 19:49 | 26.07695 | -80.13897 | 371 ft | 168 kts | 89° |
| 2026-05-05 19:49 | 26.07718 | -80.12996 | 750 ft | 174 kts | 87° |
| 2026-05-05 19:49 | 26.07779 | -80.11275 | 1765 ft | 170 kts | 87° |
| 2026-05-05 19:49 | 26.08014 | -80.09848 | 2111 ft | 208 kts | 69° |
| 2026-05-05 19:50 | 26.08621 | -80.08239 | 2415 ft | 243 kts | 60° |
| 2026-05-05 19:50 | 26.09800 | -80.06805 | 2975 ft | 260 kts | 31° |
| 2026-05-05 19:50 | 26.11489 | -80.06037 | 3819 ft | 265 kts | 18° |
| 2026-05-05 19:50 | 26.13253 | -80.05371 | 4752 ft | 269 kts | 17° |
| 2026-05-05 19:51 | 26.15066 | -80.04835 | 5669 ft | 272 kts | 2° |
| 2026-05-05 19:51 | 26.16929 | -80.05096 | 6647 ft | 271 kts | 341° |
| 2026-05-05 19:51 | 26.18724 | -80.05784 | 7588 ft | 275 kts | 338° |
| 2026-05-05 19:51 | 26.20541 | -80.06516 | 8551 ft | 281 kts | 335° |
| 2026-05-05 19:52 | 26.22162 | -80.07703 | 9558 ft | 280 kts | 311° |
| 2026-05-05 19:52 | 26.23224 | -80.09492 | 10539 ft | 281 kts | 292° |
| 2026-05-05 19:52 | 26.23995 | -80.11594 | 10915 ft | 308 kts | 290° |
| 2026-05-05 19:52 | 26.24796 | -80.13921 | 11134 ft | 336 kts | 290° |
| 2026-05-05 19:53 | 26.25592 | -80.16444 | 11642 ft | 350 kts | 284° |
| 2026-05-05 19:53 | 26.26056 | -80.19122 | 12472 ft | 353 kts | 279° |
| 2026-05-05 19:53 | 26.26424 | -80.21833 | 13383 ft | 355 kts | 278° |
| 2026-05-05 19:53 | 26.26778 | -80.24573 | 14185 ft | 359 kts | 278° |
| 2026-05-05 19:54 | 26.27015 | -80.26401 | 14682 ft | 362 kts | 279° |
| 2026-05-05 19:54 | 26.27508 | -80.30097 | 15686 ft | 366 kts | 279° |
| 2026-05-05 19:54 | 26.27895 | -80.32917 | 16423 ft | 370 kts | 280° |
| 2026-05-05 19:54 | 26.28290 | -80.35761 | 17154 ft | 373 kts | 280° |
| 2026-05-05 19:55 | 26.28694 | -80.38634 | 17841 ft | 377 kts | 281° |
| 2026-05-05 19:55 | 26.29104 | -80.41538 | 18491 ft | 381 kts | 281° |
| 2026-05-05 19:55 | 26.29384 | -80.43513 | 18886 ft | 383 kts | 281° |
| 2026-05-05 19:55 | 26.29934 | -80.47407 | 19705 ft | 385 kts | 281° |
| 2026-05-05 19:56 | 26.30216 | -80.49406 | 20108 ft | 387 kts | 281° |
| 2026-05-05 19:56 | 26.30634 | -80.52377 | 20685 ft | 389 kts | 281° |
| 2026-05-05 19:56 | 26.31055 | -80.55366 | 21239 ft | 392 kts | 280° |
| 2026-05-05 19:56 | 26.31478 | -80.58377 | 21773 ft | 394 kts | 280° |
| 2026-05-05 19:57 | 26.31903 | -80.61407 | 22296 ft | 397 kts | 280° |
| 2026-05-05 19:57 | 26.32330 | -80.64456 | 22792 ft | 400 kts | 280° |
| 2026-05-05 19:57 | 26.32753 | -80.67485 | 23258 ft | 402 kts | 280° |
| 2026-05-05 19:57 | 26.33184 | -80.70575 | 23698 ft | 405 kts | 280° |
| 2026-05-05 19:58 | 26.33617 | -80.73680 | 23961 ft | 406 kts | 280° |
| 2026-05-05 19:58 | 26.34045 | -80.76761 | 23991 ft | 401 kts | 280° |
| 2026-05-05 19:58 | 26.34474 | -80.79849 | 24013 ft | 406 kts | 280° |
| 2026-05-05 19:58 | 26.34908 | -80.82976 | 24013 ft | 408 kts | 280° |
| 2026-05-05 19:59 | 26.35340 | -80.86090 | 24014 ft | 406 kts | 280° |
| 2026-05-05 19:59 | 26.35778 | -80.89189 | 24008 ft | 403 kts | 283° |
| 2026-05-05 19:59 | 26.36678 | -80.92126 | 24018 ft | 401 kts | 296° |
| 2026-05-05 19:59 | 26.38177 | -80.94742 | 24006 ft | 402 kts | 309° |
| 2026-05-05 20:00 | 26.40141 | -80.96972 | 24021 ft | 404 kts | 315° |
| 2026-05-05 20:00 | 26.42214 | -80.99095 | 24015 ft | 405 kts | 316° |
| 2026-05-05 20:00 | 26.44305 | -81.01208 | 24013 ft | 406 kts | 315° |
| 2026-05-05 20:00 | 26.46388 | -81.03341 | 24016 ft | 407 kts | 315° |
| 2026-05-05 20:01 | 26.48454 | -81.05494 | 24011 ft | 407 kts | 315° |
| 2026-05-05 20:01 | 26.50516 | -81.07661 | 24017 ft | 407 kts | 315° |
| 2026-05-05 20:01 | 26.52574 | -81.09833 | 24018 ft | 407 kts | 314° |
| 2026-05-05 20:01 | 26.54628 | -81.12005 | 24015 ft | 407 kts | 314° |
| 2026-05-05 20:02 | 26.56685 | -81.14180 | 24018 ft | 407 kts | 314° |
| 2026-05-05 20:02 | 26.58739 | -81.16353 | 24024 ft | 407 kts | 314° |
| 2026-05-05 20:02 | 26.60792 | -81.18524 | 24014 ft | 406 kts | 314° |
| 2026-05-05 20:02 | 26.62841 | -81.20693 | 24024 ft | 406 kts | 314° |
| 2026-05-05 20:03 | 26.64819 | -81.22945 | 24017 ft | 404 kts | 310° |
| 2026-05-05 20:03 | 26.66628 | -81.25345 | 23742 ft | 402 kts | 307° |
| 2026-05-05 20:03 | 26.68349 | -81.27791 | 23435 ft | 399 kts | 307° |
| 2026-05-05 20:03 | 26.70036 | -81.30228 | 23136 ft | 393 kts | 307° |
| 2026-05-05 20:04 | 26.71694 | -81.32612 | 22744 ft | 382 kts | 307° |
| 2026-05-05 20:04 | 26.73312 | -81.34912 | 22438 ft | 370 kts | 307° |
| 2026-05-05 20:04 | 26.74899 | -81.37148 | 22038 ft | 364 kts | 307° |
| 2026-05-05 20:04 | 26.76467 | -81.39345 | 21673 ft | 359 kts | 307° |
| 2026-05-05 20:05 | 26.78018 | -81.41511 | 21302 ft | 355 kts | 307° |
| 2026-05-05 20:05 | 26.79555 | -81.43655 | 20943 ft | 351 kts | 307° |
| 2026-05-05 20:05 | 26.81079 | -81.45779 | 20587 ft | 349 kts | 307° |
| 2026-05-05 20:05 | 26.82595 | -81.47893 | 20235 ft | 347 kts | 308° |
| 2026-05-05 20:06 | 26.84057 | -81.49931 | 19929 ft | 345 kts | 308° |
| 2026-05-05 20:06 | 26.85549 | -81.52012 | 19696 ft | 341 kts | 308° |
| 2026-05-05 20:06 | 26.87038 | -81.54092 | 19470 ft | 344 kts | 308° |
| 2026-05-05 20:06 | 26.88545 | -81.56196 | 19246 ft | 347 kts | 308° |
| 2026-05-05 20:07 | 26.90052 | -81.58302 | 19017 ft | 345 kts | 308° |
| 2026-05-05 20:07 | 26.91551 | -81.60397 | 18789 ft | 344 kts | 308° |
| 2026-05-05 20:07 | 26.93042 | -81.62480 | 18563 ft | 342 kts | 308° |
| 2026-05-05 20:07 | 26.94530 | -81.64562 | 18358 ft | 342 kts | 308° |
| 2026-05-05 20:08 | 26.96016 | -81.66642 | 18105 ft | 342 kts | 308° |
| 2026-05-05 20:08 | 26.97503 | -81.68725 | 17842 ft | 342 kts | 308° |
| 2026-05-05 20:08 | 26.98986 | -81.70803 | 17589 ft | 342 kts | 308° |
| 2026-05-05 20:08 | 27.00470 | -81.72883 | 17341 ft | 341 kts | 307° |
| 2026-05-05 20:09 | 27.01951 | -81.74960 | 17089 ft | 341 kts | 307° |
| 2026-05-05 20:09 | 27.03426 | -81.77030 | 16839 ft | 340 kts | 307° |
| 2026-05-05 20:09 | 27.04902 | -81.79101 | 16595 ft | 339 kts | 307° |
| 2026-05-05 20:09 | 27.06371 | -81.81163 | 16346 ft | 338 kts | 307° |
| 2026-05-05 20:10 | 27.07839 | -81.83219 | 16105 ft | 337 kts | 308° |
| 2026-05-05 20:10 | 27.09528 | -81.85034 | 15859 ft | 337 kts | 320° |
| 2026-05-05 20:10 | 27.11391 | -81.86615 | 15625 ft | 334 kts | 321° |
| 2026-05-05 20:10 | 27.13259 | -81.88154 | 15387 ft | 333 kts | 321° |
| 2026-05-05 20:11 | 27.15122 | -81.89690 | 15153 ft | 332 kts | 321° |
| 2026-05-05 20:11 | 27.16979 | -81.91232 | 14925 ft | 332 kts | 321° |
| 2026-05-05 20:11 | 27.18828 | -81.92779 | 14690 ft | 331 kts | 321° |
| 2026-05-05 20:11 | 27.20667 | -81.94327 | 14457 ft | 330 kts | 321° |
| 2026-05-05 20:12 | 27.22504 | -81.95878 | 14231 ft | 330 kts | 321° |
| 2026-05-05 20:12 | 27.24331 | -81.97424 | 14007 ft | 329 kts | 321° |
| 2026-05-05 20:12 | 27.26160 | -81.98974 | 13774 ft | 329 kts | 321° |
| 2026-05-05 20:12 | 27.27984 | -82.00521 | 13517 ft | 328 kts | 321° |
| 2026-05-05 20:13 | 27.29781 | -82.02046 | 13269 ft | 328 kts | 321° |
| 2026-05-05 20:13 | 27.31602 | -82.03592 | 13017 ft | 328 kts | 321° |
| 2026-05-05 20:13 | 27.33424 | -82.05138 | 12766 ft | 328 kts | 321° |
| 2026-05-05 20:13 | 27.35245 | -82.06684 | 12447 ft | 329 kts | 321° |
| 2026-05-05 20:14 | 27.37125 | -82.08286 | 11684 ft | 345 kts | 320° |
| 2026-05-05 20:14 | 27.38970 | -82.09963 | 11431 ft | 333 kts | 319° |
| 2026-05-05 20:14 | 27.40706 | -82.11596 | 11259 ft | 317 kts | 318° |
| 2026-05-05 20:14 | 27.42363 | -82.13152 | 11116 ft | 303 kts | 318° |
| 2026-05-05 20:15 | 27.43945 | -82.14630 | 10986 ft | 289 kts | 318° |
| 2026-05-05 20:15 | 27.45419 | -82.16111 | 10827 ft | 280 kts | 314° |
| 2026-05-05 20:15 | 27.46812 | -82.17634 | 10673 ft | 279 kts | 314° |
| 2026-05-05 20:15 | 27.48196 | -82.19174 | 10536 ft | 281 kts | 313° |
| 2026-05-05 20:16 | 27.49594 | -82.20727 | 10384 ft | 284 kts | 314° |
| 2026-05-05 20:16 | 27.51012 | -82.22297 | 10226 ft | 286 kts | 314° |
| 2026-05-05 20:16 | 27.52428 | -82.23857 | 10049 ft | 281 kts | 314° |
| 2026-05-05 20:16 | 27.53801 | -82.25365 | 9881 ft | 271 kts | 314° |
| 2026-05-05 20:17 | 27.55136 | -82.26829 | 9705 ft | 266 kts | 314° |
| 2026-05-05 20:17 | 27.56461 | -82.28284 | 9568 ft | 266 kts | 314° |
| 2026-05-05 20:17 | 27.57792 | -82.29745 | 9412 ft | 268 kts | 314° |
| 2026-05-05 20:17 | 27.59136 | -82.31219 | 9264 ft | 271 kts | 314° |
| 2026-05-05 20:18 | 27.60493 | -82.32709 | 9107 ft | 273 kts | 314° |
| 2026-05-05 20:18 | 27.61848 | -82.34196 | 8935 ft | 270 kts | 314° |
| 2026-05-05 20:18 | 27.63184 | -82.35661 | 8786 ft | 267 kts | 314° |
| 2026-05-05 20:18 | 27.64521 | -82.37128 | 8633 ft | 269 kts | 314° |
| 2026-05-05 20:19 | 27.65864 | -82.38603 | 8491 ft | 270 kts | 314° |
| 2026-05-05 20:19 | 27.67215 | -82.40087 | 8329 ft | 271 kts | 314° |
| 2026-05-05 20:19 | 27.68625 | -82.41502 | 8157 ft | 274 kts | 327° |
| 2026-05-05 20:19 | 27.70419 | -82.42216 | 8021 ft | 276 kts | 352° |
| 2026-05-05 20:20 | 27.72321 | -82.42271 | 7951 ft | 273 kts | 359° |
| 2026-05-05 20:20 | 27.74224 | -82.42216 | 7806 ft | 274 kts | 0° |
| 2026-05-05 20:20 | 27.76135 | -82.42145 | 7664 ft | 275 kts | 1° |
| 2026-05-05 20:20 | 27.78048 | -82.42077 | 7519 ft | 275 kts | 0° |
| 2026-05-05 20:21 | 27.79953 | -82.42017 | 7367 ft | 274 kts | 0° |
| 2026-05-05 20:21 | 27.81854 | -82.41961 | 7217 ft | 272 kts | 0° |
| 2026-05-05 20:21 | 27.83746 | -82.41910 | 7072 ft | 272 kts | 0° |
| 2026-05-05 20:21 | 27.85633 | -82.41861 | 6919 ft | 271 kts | 1° |
| 2026-05-05 20:22 | 27.87516 | -82.41814 | 6780 ft | 271 kts | 1° |
| 2026-05-05 20:22 | 27.89396 | -82.41767 | 6626 ft | 270 kts | 1° |
| 2026-05-05 20:22 | 27.91276 | -82.41721 | 6482 ft | 270 kts | 1° |
| 2026-05-05 20:22 | 27.93154 | -82.41676 | 6323 ft | 270 kts | 1° |
| 2026-05-05 20:23 | 27.95033 | -82.41630 | 6171 ft | 270 kts | 1° |
| 2026-05-05 20:23 | 27.96913 | -82.41585 | 6020 ft | 270 kts | 1° |
| 2026-05-05 20:23 | 27.98786 | -82.41539 | 5868 ft | 269 kts | 1° |
| 2026-05-05 20:23 | 28.00657 | -82.41494 | 5719 ft | 269 kts | 1° |
| 2026-05-05 20:24 | 28.02523 | -82.41449 | 5564 ft | 268 kts | 1° |
| 2026-05-05 20:24 | 28.04383 | -82.41404 | 5427 ft | 267 kts | 1° |
| 2026-05-05 20:24 | 28.06240 | -82.41359 | 5271 ft | 266 kts | 1° |
| 2026-05-05 20:24 | 28.08088 | -82.41314 | 5132 ft | 265 kts | 1° |
| 2026-05-05 20:25 | 28.09931 | -82.41270 | 4987 ft | 265 kts | 1° |
| 2026-05-05 20:25 | 28.11769 | -82.41225 | 4842 ft | 264 kts | 1° |
| 2026-05-05 20:25 | 28.13603 | -82.41180 | 4696 ft | 263 kts | 1° |
| 2026-05-05 20:25 | 28.15418 | -82.41136 | 4536 ft | 257 kts | 1° |
| 2026-05-05 20:26 | 28.17170 | -82.41094 | 4393 ft | 248 kts | 1° |
| 2026-05-05 20:26 | 28.18865 | -82.41053 | 4251 ft | 239 kts | 1° |
| 2026-05-05 20:26 | 28.20483 | -82.41134 | 4133 ft | 231 kts | 344° |
| 2026-05-05 20:26 | 28.21807 | -82.42027 | 4061 ft | 217 kts | 311° |
| 2026-05-05 20:27 | 28.22490 | -82.43473 | 3933 ft | 204 kts | 282° |
| 2026-05-05 20:27 | 28.22500 | -82.45014 | 3805 ft | 191 kts | 255° |
| 2026-05-05 20:27 | 28.21974 | -82.46343 | 3712 ft | 186 kts | 233° |
| 2026-05-05 20:27 | 28.21051 | -82.47352 | 3627 ft | 186 kts | 211° |
| 2026-05-05 20:28 | 28.19946 | -82.48130 | 3541 ft | 188 kts | 211° |
| 2026-05-05 20:28 | 28.18850 | -82.48907 | 3442 ft | 183 kts | 211° |
| 2026-05-05 20:28 | 28.17782 | -82.49661 | 3327 ft | 179 kts | 210° |
| 2026-05-05 20:28 | 28.16740 | -82.50397 | 3219 ft | 176 kts | 211° |
| 2026-05-05 20:29 | 28.15690 | -82.51136 | 3133 ft | 180 kts | 211° |
| 2026-05-05 20:29 | 28.14602 | -82.51877 | 3009 ft | 184 kts | 203° |
| 2026-05-05 20:29 | 28.13370 | -82.52152 | 2842 ft | 180 kts | 185° |
| 2026-05-05 20:29 | 28.12127 | -82.52314 | 2599 ft | 178 kts | 184° |
| 2026-05-05 20:30 | 28.10903 | -82.52398 | 2372 ft | 174 kts | 182° |
| 2026-05-05 20:30 | 28.09727 | -82.52444 | 2138 ft | 164 kts | 181° |
| 2026-05-05 20:30 | 28.08649 | -82.52482 | 1944 ft | 149 kts | 181° |
| 2026-05-05 20:30 | 28.07667 | -82.52515 | 1770 ft | 135 kts | 181° |
| 2026-05-05 20:31 | 28.06706 | -82.52549 | 1600 ft | 139 kts | 181° |
| 2026-05-05 20:31 | 28.05732 | -82.52582 | 1411 ft | 141 kts | 181° |
| 2026-05-05 20:31 | 28.04746 | -82.52615 | 1227 ft | 142 kts | 182° |
| 2026-05-05 20:31 | 28.03767 | -82.52649 | 1032 ft | 139 kts | 182° |
| 2026-05-05 20:32 | 28.02807 | -82.52681 | 858 ft | 137 kts | 184° |
| 2026-05-05 20:32 | 28.01863 | -82.52714 | 684 ft | 135 kts | 184° |
| 2026-05-05 20:32 | 28.00926 | -82.52745 | 514 ft | 134 kts | 184° |
| 2026-05-05 20:32 | 27.99985 | -82.52779 | 317 ft | 135 kts | 184° |
| 2026-05-05 20:33 | 27.99054 | -82.52810 | 148 ft | 133 kts | 185° |
| 2026-05-05 20:33 | 27.98139 | -82.52839 | 38 ft | 128 kts | 183° |
| 2026-05-05 20:33 | 27.97372 | -82.52867 | 37 ft | 89 kts | 181° |
| 2026-05-05 20:33 | 27.96983 | -82.52880 | 35 ft | 27 kts | 180° |
| 2026-05-05 20:34 | 27.96888 | -82.52976 | 39 ft | 22 kts | 288° |
| 2026-05-05 20:34 | 27.97007 | -82.53001 | 37 ft | 19 kts | 20° |
| 2026-05-05 20:34 | 27.97135 | -82.52998 | 38 ft | 18 kts | 359° |
| 2026-05-05 20:34 | 27.97311 | -82.52993 | 40 ft | 32 kts | 1° |
| 2026-05-05 20:35 | 27.97530 | -82.52987 | 41 ft | 31 kts | 1° |
| 2026-05-05 20:35 | 27.97735 | -82.52982 | 41 ft | 29 kts | 1° |
| 2026-05-05 20:35 | 27.97929 | -82.52974 | 41 ft | 27 kts | 1° |
| 2026-05-05 20:35 | 27.98109 | -82.52966 | 41 ft | 25 kts | 2° |
| 2026-05-05 20:36 | 27.98258 | -82.52962 | 40 ft | 17 kts | 355° |
| 2026-05-05 20:36 | 27.98341 | -82.53041 | 41 ft | 17 kts | 279° |
| 2026-05-05 20:36 | 27.98339 | -82.53123 | 42 ft | 0 kts | 255° |